Latest Weather Observations for Bougainville Reef

IDQ60801

Issued at 6:32 pm EST Saturday 23 May 2015 (issued every 30 minutes, with the page automatically refreshed every 10 minutes)

About weather observations | Map of weather stations | Latest weather observations for QLD | Other Formats
Station Details ID: 200840 Name: BOUGAINVILLE REEF Lat: -15.49 Lon: 147.12 Height: 0.0 m
Data from the previous 72 hours. | See also: Recent months for locations in Queensland
Date/Time
EST
Temp
°C
App
Temp
°C
Dew
Point
Rel
Hum
%
Delta-T
°C
Wind Press
QNH
hPa
Press
MSL
hPa
Rain
since 9 am
mm
Dir
 
Spd
km/h
Gust
km/h
Spd
kts
Gust
kts
23/05:49pm 24.9 - - - - SSE 50 - 27 - - 1015.8 -
23/04:49pm 24.7 - - - - SE 52 - 28 - - 1015.2 -
23/03:49pm 24.7 - - - - SSE 52 - 28 - - 1014.7 -
23/02:49pm 24.9 - - - - SSE 50 - 27 - - 1014.3 -
23/01:49pm 25.1 - - - - SSE 48 - 26 - - 1014.5 -
23/12:49pm 25.1 - - - - SSE 50 - 27 - - 1014.9 -
23/11:49am 25.3 - - - - SE 48 - 26 - - 1015.7 -
23/10:49am 25.2 - - - - SE 48 - 26 - - 1016.4 -
23/09:49am 25.3 - - - - SE 48 - 26 - - 1016.8 -
23/08:49am 25.4 - - - - SSE 50 - 27 - - 1016.9 -
23/07:49am 25.5 - - - - SSE 50 - 27 - - 1016.0 -
23/06:49am 25.2 - - - - SSE 52 - 28 - - 1015.3 -
23/05:49am 25.5 - - - - SE 52 - 28 - - 1014.7 -
23/04:49am 25.6 - - - - SSE 52 - 28 - - 1014.3 -
23/03:49am 25.4 - - - - SSE 48 - 26 - - 1014.2 -
23/02:49am 25.6 - - - - SSE 43 - 23 - - 1014.1 -
23/02:00am 25.6 - - - - SSE 44 50 24 27 1014.5 - -
23/01:49am 25.5 - - - - SE 43 - 23 - - 1014.5 -
23/01:30am 25.8 - - - - SE 43 50 23 27 1014.8 - -
23/01:00am 25.6 - - - - SE 44 50 24 27 1015.1 - -
23/12:49am 25.8 - - - - SE 44 - 24 - - 1015.1 -
23/12:30am 25.7 - - - - SE 44 54 24 29 1015.3 - -
23/12:00am 25.8 - - - - SSE 44 52 24 28 1015.5 - -
 
Date/Time
EST
Temp
°C
App
Temp
°C
Dew
Point
Rel
Hum
%
Delta-T
°C
Wind Press
QNH
hPa
Press
MSL
hPa
Rain
since 9 am
mm
Dir
 
Spd
km/h
Gust
km/h
Spd
kts
Gust
kts
22/11:49pm 25.6 - - - - SSE 43 - 23 - - 1015.5 -
22/11:30pm 25.7 - - - - SSE 41 46 22 25 1015.8 - -
22/11:00pm 25.5 - - - - SSE 39 46 21 25 1015.9 - -
22/10:49pm 25.5 - - - - SSE 44 - 24 - - 1015.8 -
22/10:30pm 25.4 - - - - SSE 43 48 23 26 1016.0 - -
22/10:00pm 25.4 - - - - SSE 44 50 24 27 1015.9 - -
22/09:49pm 25.5 - - - - SSE 44 - 24 - - 1015.8 -
22/09:30pm 25.4 - - - - SSE 43 46 23 25 1015.9 - -
22/09:00pm 25.6 - - - - SSE 43 48 23 26 1016.1 - -
22/08:49pm 25.5 - - - - SSE 43 - 23 - - 1016.0 -
22/08:30pm 25.2 - - - - SSE 43 50 23 27 1016.1 - -
22/07:49pm 25.3 - - - - SSE 43 - 23 - - 1015.6 -
22/07:30pm 25.5 - - - - S 43 48 23 26 1015.5 - -
22/07:00pm 25.4 - - - - SSE 43 48 23 26 1015.3 - -
22/06:49pm 25.2 - - - - S 43 - 23 - - 1015.1 -
22/06:30pm 25.2 - - - - S 43 50 23 27 1015.0 - -
22/06:00pm 25.2 - - - - S 43 50 23 27 1014.5 - -
22/05:49pm 25.3 - - - - S 41 - 22 - - 1014.4 -
22/05:30pm 25.4 - - - - S 43 50 23 27 1014.2 - -
22/05:00pm 25.6 - - - - S 46 52 25 28 1013.9 - -
22/04:49pm 25.4 - - - - S 44 - 24 - - 1013.7 -
22/04:30pm 25.8 - - - - S 44 52 24 28 1013.6 - -
22/04:00pm 26.0 - - - - S 43 48 23 26 1013.4 - -
22/03:49pm 25.9 - - - - S 41 - 22 - - 1013.3 -
22/03:30pm 26.1 - - - - S 41 50 22 27 1013.4 - -
22/03:00pm 25.9 - - - - S 41 46 22 25 1013.5 - -
22/02:49pm 25.9 - - - - S 41 - 22 - - 1013.4 -
22/02:30pm 25.7 - - - - S 39 44 21 24 1013.6 - -
22/02:00pm 25.8 - - - - S 37 46 20 25 1013.9 - -
22/01:49pm 25.8 - - - - S 39 - 21 - - 1013.8 -
22/01:30pm 25.9 - - - - S 37 43 20 23 1014.2 - -
22/01:00pm 25.9 - - - - S 39 44 21 24 1014.6 - -
22/12:49pm 25.6 - - - - S 37 - 20 - - 1014.6 -
22/12:30pm 25.8 - - - - S 37 41 20 22 1015.1 - -
22/12:00pm 25.7 - - - - S 35 37 19 20 1015.4 - -
22/11:49am 25.9 - - - - S 32 - 17 - - 1015.4 -
22/11:30am 25.8 - - - - S 33 39 18 21 1015.6 - -
22/11:00am 25.8 - - - - S 33 39 18 21 1016.1 - -
22/10:49am 25.9 - - - - SSE 32 - 17 - - 1016.1 -
22/10:30am 25.9 - - - - SSE 30 33 16 18 1016.4 - -
22/10:00am 25.9 - - - - SSE 32 35 17 19 1016.6 - -
22/09:49am 25.8 - - - - SSE 30 - 16 - - 1016.6 -
22/09:30am 25.8 - - - - SSE 28 35 15 19 1016.8 - -
22/09:00am 25.9 - - - - SSE 28 33 15 18 1016.8 - -
22/08:49am 25.7 - - - - SSE 28 - 15 - - 1016.7 -
22/08:30am 25.6 - - - - S 30 33 16 18 1016.5 - -
22/08:00am 25.9 - - - - S 28 32 15 17 1016.1 - -
22/07:49am 25.5 - - - - SSE 26 - 14 - - 1015.9 -
22/07:30am 25.6 - - - - S 26 32 14 17 1015.7 - -
22/07:00am 25.7 - - - - SSE 28 32 15 17 1015.4 - -
22/06:49am 25.5 - - - - S 26 - 14 - - 1015.2 -
22/06:30am 25.5 - - - - S 26 30 14 16 1015.1 - -
22/06:00am 25.5 - - - - SSE 26 30 14 16 1014.7 - -
22/05:49am 25.4 - - - - SSE 26 - 14 - - 1014.5 -
22/05:30am 25.4 - - - - SE 22 28 12 15 1014.5 - -
22/05:00am 25.6 - - - - SE 22 26 12 14 1014.1 - -
22/04:49am 25.5 - - - - SE 22 - 12 - - 1014.0 -
22/04:30am 25.5 - - - - ESE 24 30 13 16 1014.0 - -
22/04:00am 25.5 - - - - ESE 26 30 14 16 1013.8 - -
22/03:49am 25.4 - - - - SE 26 - 14 - - 1013.7 -
22/03:30am 25.4 - - - - ESE 28 32 15 17 1013.9 - -
22/03:00am 25.7 - - - - ESE 28 32 15 17 1014.0 - -
22/02:49am 25.7 - - - - ESE 28 - 15 - - 1013.9 -
22/02:30am 25.6 - - - - ESE 28 30 15 16 1014.2 - -
22/02:00am 25.6 - - - - ESE 30 33 16 18 1014.6 - -
22/01:49am 25.5 - - - - ESE 28 - 15 - - 1014.5 -
22/01:30am 25.8 - - - - ESE 30 33 16 18 1014.7 - -
22/01:00am 25.7 - - - - SE 30 33 16 18 1015.0 - -
22/12:49am 26.0 - - - - ESE 28 - 15 - - 1015.1 -
22/12:30am 25.8 - - - - SE 30 35 16 19 1015.2 - -
22/12:00am 25.6 - - - - SE 28 32 15 17 1015.6 - -
 
Date/Time
EST
Temp
°C
App
Temp
°C
Dew
Point
Rel
Hum
%
Delta-T
°C
Wind Press
QNH
hPa
Press
MSL
hPa
Rain
since 9 am
mm
Dir
 
Spd
km/h
Gust
km/h
Spd
kts
Gust
kts
21/11:49pm 25.7 - - - - SSE 30 - 16 - - 1015.6 -
21/11:30pm 25.9 - - - - SSE 32 35 17 19 1015.9 - -
21/11:00pm 25.8 - - - - SE 30 33 16 18 1016.3 - -
21/10:49pm 25.8 - - - - SE 30 - 16 - - 1016.2 -
21/10:30pm 25.7 - - - - SE 32 35 17 19 1016.6 - -
21/09:49pm 25.9 - - - - SSE 32 - 17 - - 1016.5 -
21/09:30pm 26.0 - - - - SSE 32 37 17 20 1016.4 - -
21/09:00pm 26.0 - - - - SE 32 37 17 20 1016.5 - -
21/08:49pm 25.9 - - - - SE 32 - 17 - - 1016.3 -
21/08:30pm 25.9 - - - - SE 30 35 16 19 1016.4 - -
21/08:00pm 25.9 - - - - SE 30 35 16 19 1016.1 - -
21/07:49pm 26.1 - - - - SE 30 - 16 - - 1015.9 -
21/07:30pm 25.9 - - - - SE 32 35 17 19 1015.7 - -
21/07:00pm 26.0 - - - - SE 30 33 16 18 1015.3 - -
21/06:49pm 26.1 - - - - SSE 28 - 15 - - 1015.1 -
21/06:30pm 25.9 - - - - SSE 30 33 16 18 1015.1 - -
21/06:00pm 25.9 - - - - SE 30 33 16 18 1014.6 - -
21/05:49pm 25.8 - - - - SE 30 - 16 - - 1014.4 -
21/05:30pm 25.9 - - - - SE 28 32 15 17 1014.3 - -
21/05:00pm 25.8 - - - - SE 28 32 15 17 1014.2 - -
21/04:49pm 26.0 - - - - SE 28 - 15 - - 1014.1 -
21/04:30pm 25.9 - - - - SE 26 32 14 17 1014.1 - -
21/04:00pm 25.9 - - - - SE 28 32 15 17 1014.1 - -
21/03:49pm 26.1 - - - - SE 26 - 14 - - 1013.9 -
21/03:30pm 26.0 - - - - SE 26 32 14 17 1014.0 - -
21/03:00pm 25.8 - - - - SE 28 32 15 17 1014.1 - -
21/02:49pm 25.9 - - - - SE 28 - 15 - - 1014.0 -
21/02:30pm 26.0 - - - - SE 28 32 15 17 1014.2 - -
21/02:00pm 25.9 - - - - SE 30 33 16 18 1014.5 - -
21/01:49pm 25.8 - - - - SE 30 - 16 - - 1014.5 -
21/01:30pm 25.7 - - - - SSE 30 33 16 18 1014.7 - -
21/01:00pm 25.8 - - - - SSE 28 32 15 17 1015.1 - -
21/12:49pm 26.2 - - - - SSE 28 - 15 - - 1015.2 -
21/12:30pm 25.7 - - - - SSE 28 32 15 17 1015.6 - -
21/12:00pm 26.1 - - - - SSE 28 32 15 17 1016.0 - -
21/11:49am 25.9 - - - - SSE 28 - 15 - - 1016.1 -
21/11:30am 25.8 - - - - SSE 26 30 14 16 1016.5 - -
21/11:00am 25.8 - - - - SSE 28 30 15 16 1016.8 - -
21/10:49am 26.0 - - - - SSE 26 - 14 - - 1016.8 -
21/10:30am 25.9 - - - - SE 26 30 14 16 1017.2 - -
21/10:00am 26.1 - - - - SE 28 32 15 17 1017.4 - -
21/09:49am 26.0 - - - - SE 26 - 14 - - 1017.3 -
21/09:30am 26.1 - - - - SE 26 30 14 16 1017.5 - -
21/09:00am 25.9 - - - - SE 26 32 14 17 1017.4 - -
21/08:49am 26.0 - - - - SE 26 - 14 - - 1017.2 -
21/08:30am 25.9 - - - - SE 28 33 15 18 1017.2 - -
21/08:00am 26.0 - - - - SE 28 30 15 16 1017.0 - -
21/07:49am 25.8 - - - - SE 26 - 14 - - 1016.8 -
21/07:30am 25.9 - - - - SE 26 30 14 16 1016.7 - -
21/07:00am 25.9 - - - - SE 28 32 15 17 1016.2 - -
21/06:49am 25.9 - - - - SE 26 - 14 - - 1015.9 -
21/06:30am 25.7 - - - - SE 28 33 15 18 1015.7 - -
21/06:00am 25.9 - - - - SE 28 32 15 17 1015.3 - -
21/05:49am 25.7 - - - - SE 28 - 15 - - 1015.1 -
21/05:30am 25.8 - - - - SE 28 33 15 18 1015.1 - -
21/05:00am 25.8 - - - - SE 28 32 15 17 1015.0 - -
21/04:49am 25.9 - - - - SE 28 - 15 - - 1014.8 -
21/04:30am 25.7 - - - - SE 28 33 15 18 1014.9 - -
21/04:00am 25.7 - - - - SE 28 32 15 17 1015.0 - -
21/03:49am 25.8 - - - - SE 26 - 14 - - 1015.1 -
21/03:30am 25.9 - - - - SE 28 32 15 17 1015.2 - -
21/03:00am 25.8 - - - - SE 28 32 15 17 1015.3 - -
21/02:49am 26.0 - - - - SE 28 - 15 - - 1015.2 -
21/02:30am 25.7 - - - - SE 26 30 14 16 1015.4 - -
21/02:00am 25.9 - - - - SE 28 32 15 17 1015.6 - -
21/01:49am 26.0 - - - - SE 28 - 15 - - 1015.6 -
21/01:30am 25.8 - - - - SE 26 30 14 16 1015.9 - -
21/01:00am 25.9 - - - - SE 30 32 16 17 1016.0 - -
21/12:49am 26.0 - - - - SE 28 - 15 - - 1016.0 -
21/12:30am 25.9 - - - - SE 30 33 16 18 1016.3 - -
21/12:00am 25.8 - - - - SE 28 33 15 18 1016.5 - -
 
Date/Time
EST
Temp
°C
App
Temp
°C
Dew
Point
Rel
Hum
%
Delta-T
°C
Wind Press
QNH
hPa
Press
MSL
hPa
Rain
since 9 am
mm
Dir
 
Spd
km/h
Gust
km/h
Spd
kts
Gust
kts
20/11:49pm 25.9 - - - - SE 28 - 15 - - 1016.4 -
20/11:30pm 25.8 - - - - SE 30 35 16 19 1016.7 - -
20/11:00pm 26.0 - - - - SE 32 35 17 19 1016.8 - -
20/10:49pm 25.9 - - - - SE 30 - 16 - - 1016.8 -
20/10:30pm 26.0 - - - - SSE 26 30 14 16 1017.0 - -
20/10:00pm 26.0 - - - - SE 28 32 15 17 1017.0 - -
20/09:49pm 25.9 - - - - SE 28 - 15 - - 1016.8 -
20/09:30pm 25.9 - - - - SSE 30 32 16 17 1016.9 - -
20/09:00pm 25.9 - - - - SSE 28 32 15 17 1016.8 - -
20/08:49pm 26.1 - - - - SSE 28 - 15 - - 1016.6 -
20/08:30pm 25.9 - - - - SE 26 32 14 17 1016.6 - -
20/08:00pm 25.9 - - - - SSE 28 32 15 17 1016.2 - -
20/07:49pm 25.9 - - - - SE 26 - 14 - - 1016.0 -
20/07:30pm 25.8 - - - - SE 26 30 14 16 1015.8 - -
20/07:00pm 25.9 - - - - SE 28 32 15 17 1015.4 - -
20/06:49pm 25.8 - - - - SE 28 - 15 - - 1015.1 -

Other Formats:

Comma delimited format used in spreadsheet applications
http://www.bom.gov.au/fwo/IDQ60801/IDQ60801.95288.axf

JavaScript Object Notation format (JSON) in row-major order
http://www.bom.gov.au/fwo/IDQ60801/IDQ60801.95288.json